Time;durP1;ratioP1;P1;durP2;ratioP2;P2;SDS_P1;SDS_P2;PMS_P1;PMS_P2;Temp;Humidity;BMP_temperature;BMP_pressure;BME280_temperature;BME280_humidity;BME280_pressure;Samples;Min_cycle;Max_cycle;Signal;HPM_P1;HPM_P2
2021/06/09 00:00:19;;;;;;;1.10;0.70;;;;;;;17.51;65.88;101691.06;5035041;28;20497;-68
2021/06/09 00:02:45;;;;;;;0.50;0.40;;;;;;;17.36;65.56;101679.47;5034970;28;20446;-68
2021/06/09 00:05:13;;;;;;;1.20;0.90;;;;;;;17.34;64.85;101681.69;5034899;28;20442;-68
2021/06/09 00:07:39;;;;;;;1.03;0.67;;;;;;;17.32;65.23;101696.84;5034741;28;20463;-68
2021/06/09 00:10:06;;;;;;;1.13;0.70;;;;;;;17.24;65.84;101687.50;5034859;28;20450;-67
2021/06/09 00:12:33;;;;;;;1.20;1.10;;;;;;;17.20;66.63;101686.50;5034702;28;20490;-69
2021/06/09 00:14:59;;;;;;;1.07;0.70;;;;;;;17.18;67.07;101688.78;5034837;28;20450;-66
2021/06/09 00:17:26;;;;;;;0.60;0.50;;;;;;;17.06;67.59;101689.38;5034435;28;20481;-67
2021/06/09 00:19:52;;;;;;;0.60;0.60;;;;;;;16.94;67.62;101683.69;5034373;28;20940;-68
2021/06/09 00:22:19;;;;;;;1.00;0.60;;;;;;;16.87;67.42;101684.16;5034620;28;20493;-67
2021/06/09 00:24:45;;;;;;;0.90;0.50;;;;;;;16.89;67.39;101690.13;5034592;28;20443;-67
2021/06/09 00:27:11;;;;;;;1.10;0.80;;;;;;;16.68;68.80;101680.03;5034529;28;20463;-67
2021/06/09 00:29:37;;;;;;;0.80;0.57;;;;;;;16.64;68.95;101682.56;5034044;28;20975;-67
2021/06/09 00:32:04;;;;;;;1.57;0.90;;;;;;;16.54;69.24;101691.06;5033528;28;20487;-67
2021/06/09 00:34:30;;;;;;;1.77;0.87;;;;;;;16.51;69.65;101686.22;5034338;28;20447;-67
2021/06/09 00:36:56;;;;;;;1.03;0.87;;;;;;;16.40;70.48;101686.50;5033834;28;20459;-67
2021/06/09 00:39:23;;;;;;;1.37;1.03;;;;;;;16.24;71.29;101684.44;5034295;28;20447;-67
2021/06/09 00:41:49;;;;;;;0.60;0.40;;;;;;;16.22;71.23;101694.91;5034000;28;20498;-68
2021/06/09 00:44:15;;;;;;;0.70;0.60;;;;;;;16.24;71.52;101698.13;5033836;28;20471;-67
2021/06/09 00:46:42;;;;;;;1.43;0.63;;;;;;;16.11;71.52;101694.34;5034087;28;20471;-68
2021/06/09 00:49:09;;;;;;;0.80;0.60;;;;;;;16.13;71.13;101686.66;5033981;28;20454;-67
2021/06/09 00:51:36;;;;;;;1.17;0.87;;;;;;;16.08;71.74;101692.25;5034093;28;20853;-67
2021/06/09 00:54:04;;;;;;;0.70;0.57;;;;;;;16.08;71.58;101692.25;5034006;28;20443;-67
2021/06/09 00:56:33;;;;;;;0.60;0.43;;;;;;;15.98;72.23;101689.72;5033955;28;20439;-67
2021/06/09 00:58:59;;;;;;;0.60;0.60;;;;;;;15.89;72.86;101692.41;5033971;28;20440;-68
2021/06/09 01:01:27;;;;;;;1.17;0.67;;;;;;;15.96;72.91;101686.53;5033935;28;20454;-67
2021/06/09 01:03:53;;;;;;;0.93;0.83;;;;;;;15.89;72.85;101687.78;5033923;28;20451;-68
2021/06/09 01:06:20;;;;;;;1.00;0.67;;;;;;;15.88;72.77;101691.59;5033410;28;20883;-67
2021/06/09 01:08:47;;;;;;;1.10;0.80;;;;;;;15.83;72.57;101693.66;5033749;28;20435;-68
2021/06/09 01:11:15;;;;;;;0.67;0.63;;;;;;;15.73;72.79;101691.97;5033636;28;20578;-68
2021/06/09 01:13:44;;;;;;;1.13;0.80;;;;;;;15.75;73.19;101689.72;5033743;28;20455;-67
2021/06/09 01:16:10;;;;;;;0.77;0.70;;;;;;;15.82;72.41;101675.66;5033738;28;20439;-68
2021/06/09 01:18:37;;;;;;;0.70;0.60;;;;;;;15.75;72.56;101683.44;5033247;28;20480;-67
2021/06/09 01:21:03;;;;;;;1.13;1.00;;;;;;;15.59;73.62;101682.97;5033634;28;20443;-67
2021/06/09 01:23:31;;;;;;;1.53;0.90;;;;;;;15.49;73.85;101680.47;5033462;28;20431;-68
2021/06/09 01:25:58;;;;;;;0.90;0.67;;;;;;;15.53;73.95;101676.81;5033507;28;20431;-67
2021/06/09 01:28:25;;;;;;;1.13;0.70;;;;;;;15.51;73.94;101675.50;5033453;28;20824;-67
2021/06/09 01:30:53;;;;;;;1.50;0.77;;;;;;;15.43;73.63;101673.50;5033190;28;20438;-68
2021/06/09 01:33:20;;;;;;;0.67;0.50;;;;;;;15.39;74.11;101678.75;5033416;28;20453;-68
2021/06/09 01:35:49;;;;;;;0.60;0.47;;;;;;;15.35;74.11;101678.56;5033374;28;20813;-68
2021/06/09 01:38:15;;;;;;;1.47;0.70;;;;;;;15.25;74.52;101678.78;5033415;28;20463;-68
2021/06/09 01:40:43;;;;;;;1.33;0.73;;;;;;;15.18;74.92;101683.03;5033096;28;20936;-68
2021/06/09 01:43:09;;;;;;;1.83;0.93;;;;;;;15.08;74.97;101681.34;5033251;28;20447;-68
2021/06/09 01:45:37;;;;;;;0.63;0.60;;;;;;;14.96;75.56;101675.56;5033195;28;20443;-67
2021/06/09 01:48:05;;;;;;;0.50;0.40;;;;;;;14.94;75.56;101673.16;5033170;28;20455;-68
2021/06/09 01:50:31;;;;;;;1.17;0.97;;;;;;;14.76;76.37;101677.59;5033104;28;20455;-68
2021/06/09 01:53:02;;;;;;;0.60;0.53;;;;;;;14.74;76.84;101676.28;5033080;28;20489;-67
2021/06/09 01:55:30;;;;;;;0.73;0.67;;;;;;;14.76;76.99;101674.88;5033205;28;20416;-68
2021/06/09 01:57:57;;;;;;;0.80;0.60;;;;;;;14.76;76.96;101665.88;5033064;28;20467;-67
2021/06/09 02:00:26;;;;;;;1.00;0.70;;;;;;;14.79;76.90;101679.72;5033152;28;20450;-67
2021/06/09 02:02:57;;;;;;;0.80;0.60;;;;;;;14.67;77.56;101679.41;5033050;28;20441;-67
2021/06/09 02:05:23;;;;;;;0.80;0.70;;;;;;;14.62;77.94;101668.59;5033218;28;20431;-67
2021/06/09 02:07:49;;;;;;;1.00;0.80;;;;;;;14.66;77.81;101675.06;5033009;28;20935;-68
2021/06/09 02:10:18;;;;;;;2.80;0.80;;;;;;;14.62;77.88;101672.13;5032724;28;20443;-68
2021/06/09 02:12:46;;;;;;;1.10;1.00;;;;;;;14.49;78.14;101672.13;5032621;28;21019;-66
2021/06/09 02:15:16;;;;;;;1.10;0.70;;;;;;;14.41;78.20;101670.06;5033037;28;20451;-67
2021/06/09 02:17:46;;;;;;;1.00;0.90;;;;;;;14.33;78.26;101680.53;5060757;22;20482;-67
2021/06/09 02:20:13;;;;;;;0.77;0.77;;;;;;;14.31;78.60;101671.03;5052412;28;20813;-68
2021/06/09 02:22:39;;;;;;;0.90;0.90;;;;;;;14.29;78.66;101673.25;5052822;28;20449;-68
2021/06/09 02:25:07;;;;;;;1.03;0.60;;;;;;;14.19;79.37;101668.78;5052673;28;20500;-68
2021/06/09 02:27:34;;;;;;;0.80;0.80;;;;;;;14.17;79.75;101676.47;5052608;28;20442;-68
2021/06/09 02:30:00;;;;;;;0.90;0.80;;;;;;;14.11;79.89;101666.75;5052555;28;20446;-68
2021/06/09 02:32:27;;;;;;;1.33;1.00;;;;;;;14.07;80.14;101669.25;5052215;28;20488;-68
2021/06/09 02:34:53;;;;;;;1.40;0.77;;;;;;;14.02;80.27;101665.81;5052562;28;20443;-69
2021/06/09 02:37:21;;;;;;;1.00;0.90;;;;;;;13.86;80.70;101673.44;5052519;28;20868;-68
2021/06/09 02:39:47;;;;;;;1.33;0.80;;;;;;;14.02;80.27;101665.81;5052537;28;20456;-68
2021/06/09 02:42:17;;;;;;;1.17;0.80;;;;;;;14.05;80.42;101663.28;5052551;28;20484;-68
2021/06/09 02:44:43;;;;;;;0.60;0.60;;;;;;;14.02;80.43;101665.81;5052462;28;20822;-68
2021/06/09 02:47:10;;;;;;;1.50;1.40;;;;;;;14.00;80.65;101677.00;5052443;28;20821;-68
2021/06/09 02:49:39;;;;;;;1.33;0.63;;;;;;;14.08;80.24;101673.59;5052312;28;20469;-68
2021/06/09 02:52:11;;;;;;;1.43;0.90;;;;;;;13.99;80.55;101669.94;5052071;28;20485;-68
2021/06/09 02:54:46;;;;;;;1.23;1.13;;;;;;;14.06;79.62;101666.81;5054080;28;20430;-68
2021/06/09 02:57:25;;;;;;;0.80;0.80;;;;;;;14.04;79.55;101672.59;5056071;28;20453;-68
2021/06/09 03:00:00;;;;;;;0.70;0.70;;;;;;;13.83;80.50;101669.38;5055886;28;20438;-69
2021/06/09 03:02:45;;;;;;;0.97;0.50;;;;;;;13.77;80.69;101670.56;5055960;28;20786;-69
2021/06/09 03:05:18;;;;;;;0.97;0.90;;;;;;;13.77;80.61;101667.84;5055918;28;20527;-69
2021/06/09 03:07:56;;;;;;;1.10;0.93;;;;;;;13.71;80.95;101669.00;5055801;28;20473;-69
2021/06/09 03:10:27;;;;;;;2.70;1.30;;;;;;;13.57;81.58;101668.13;5055584;28;20426;-69
2021/06/09 03:13:02;;;;;;;0.80;0.60;;;;;;;13.67;81.38;101670.69;5055623;28;20466;-68
2021/06/09 03:15:35;;;;;;;1.13;1.03;;;;;;;13.69;80.97;101676.66;5055772;28;20433;-69
2021/06/09 03:18:07;;;;;;;1.00;0.63;;;;;;;13.74;80.98;101667.63;5055228;28;20991;-69
2021/06/09 03:20:41;;;;;;;2.13;1.00;;;;;;;13.75;80.78;101671.94;5055673;28;20423;-69
2021/06/09 03:23:13;;;;;;;0.83;0.67;;;;;;;13.72;80.97;101672.53;5055672;28;20423;-69
2021/06/09 03:25:47;;;;;;;1.30;1.20;;;;;;;13.75;81.32;101670.03;5055223;28;20908;-68
2021/06/09 03:28:20;;;;;;;0.90;0.90;;;;;;;13.65;81.95;101674.84;5055502;28;20465;-68
2021/06/09 03:30:52;;;;;;;1.53;1.10;;;;;;;13.67;82.07;101670.69;5055463;28;20441;-68
2021/06/09 03:33:19;;;;;;;1.20;0.87;;;;;;;13.62;82.14;101671.56;5055132;28;20904;-69
2021/06/09 03:35:53;;;;;;;0.97;0.73;;;;;;;13.71;82.09;101669.00;5055066;28;20966;-68
2021/06/09 03:38:27;;;;;;;1.53;0.93;;;;;;;13.77;82.12;101670.56;5055391;28;20580;-68
2021/06/09 03:40:59;;;;;;;1.13;0.90;;;;;;;13.85;81.82;101666.34;5055542;28;20430;-68
2021/06/09 03:43:28;;;;;;;1.27;0.90;;;;;;;13.81;81.99;101662.59;5055260;28;20439;-68
2021/06/09 03:45:55;;;;;;;1.30;1.20;;;;;;;13.72;79.70;101665.16;5055073;28;20434;-68
2021/06/09 03:48:24;;;;;;;0.93;0.83;;;;;;;13.69;79.45;101665.78;5054751;28;20458;-68
2021/06/09 03:50:54;;;;;;;1.10;0.80;;;;;;;13.67;79.30;101667.97;5055351;28;20492;-69
2021/06/09 03:53:22;;;;;;;1.50;1.00;;;;;;;13.61;79.59;101663.72;5057021;28;20474;-68
2021/06/09 03:55:51;;;;;;;1.20;0.93;;;;;;;13.60;79.84;101667.56;5068763;28;20439;-68
2021/06/09 03:58:19;;;;;;;1.10;0.73;;;;;;;13.51;80.32;101663.88;5058393;28;20849;-68
2021/06/09 04:00:47;;;;;;;1.70;1.33;;;;;;;13.44;81.26;101658.78;5054541;28;20521;-68
2021/06/09 04:03:13;;;;;;;1.67;1.13;;;;;;;13.63;79.78;101661.50;5054753;28;20434;-68
2021/06/09 04:05:42;;;;;;;3.57;1.03;;;;;;;13.82;80.50;101659.59;5053537;28;20450;-68
2021/06/09 04:08:12;;;;;;;1.00;0.63;;;;;;;13.91;82.53;101661.63;5054555;28;20520;-68
2021/06/09 04:10:39;;;;;;;0.90;0.83;;;;;;;13.99;83.72;101656.31;5054585;28;20465;-68
2021/06/09 04:13:05;;;;;;;1.40;1.30;;;;;;;14.12;84.04;101652.00;5054473;28;20486;-67
2021/06/09 04:15:32;;;;;;;2.03;1.30;;;;;;;14.26;83.99;101655.59;5054520;28;20500;-67
2021/06/09 04:17:59;;;;;;;1.60;0.93;;;;;;;14.42;84.04;101666.22;5054234;28;20478;-68
2021/06/09 04:20:27;;;;;;;1.13;0.90;;;;;;;14.42;83.97;101656.13;5054527;28;20484;-68
2021/06/09 04:22:53;;;;;;;1.30;0.80;;;;;;;14.50;83.77;101663.63;5054356;28;20438;-67
2021/06/09 04:25:21;;;;;;;2.10;1.03;;;;;;;14.58;82.76;101664.88;5054310;28;20465;-67
2021/06/09 04:27:48;;;;;;;0.80;0.60;;;;;;;14.74;81.03;101663.47;5054300;28;20489;-67
2021/06/09 04:30:15;;;;;;;1.10;1.00;;;;;;;14.91;81.26;101667.50;5054343;28;20495;-68
2021/06/09 04:32:52;;;;;;;2.47;1.20;;;;;;;14.98;82.34;101668.72;5054105;28;20482;-67
2021/06/09 04:35:19;;;;;;;1.57;1.27;;;;;;;15.08;81.52;101663.03;5054429;28;20440;-67
2021/06/09 04:37:45;;;;;;;3.63;1.30;;;;;;;15.18;80.11;101662.00;5053846;28;20469;-68
2021/06/09 04:40:16;;;;;;;1.43;1.10;;;;;;;15.34;80.14;101666.03;5054126;28;20499;-68
2021/06/09 04:42:44;;;;;;;1.90;1.33;;;;;;;15.31;79.45;101672.09;5054089;28;20439;-68
2021/06/09 04:45:11;;;;;;;0.93;0.83;;;;;;;15.46;77.87;101670.16;5053857;28;20430;-68
2021/06/09 04:47:37;;;;;;;1.87;0.90;;;;;;;15.55;77.09;101665.59;5053839;28;20478;-68
2021/06/09 04:50:04;;;;;;;1.13;1.03;;;;;;;15.67;76.13;101667.78;5053623;28;20469;-69
2021/06/09 04:52:30;;;;;;;0.60;0.60;;;;;;;15.81;76.85;101668.56;5053624;28;21010;-67
2021/06/09 04:54:56;;;;;;;1.90;1.33;;;;;;;15.89;77.11;101670.53;5053847;28;20526;-67
2021/06/09 04:57:22;;;;;;;1.70;1.53;;;;;;;15.99;77.55;101666.78;5053858;28;20801;-68
2021/06/09 04:59:49;;;;;;;1.23;1.07;;;;;;;16.14;78.54;101671.84;5053822;28;20508;-68
2021/06/09 05:02:18;;;;;;;1.70;0.87;;;;;;;16.26;77.56;101672.09;5053895;28;20434;-68
2021/06/09 05:04:44;;;;;;;2.60;1.40;;;;;;;16.37;77.41;101675.34;5053788;28;20442;-68
2021/06/09 05:07:10;;;;;;;2.93;1.17;;;;;;;16.44;77.30;101670.25;5053776;28;20822;-69
2021/06/09 05:09:36;;;;;;;1.10;1.00;;;;;;;16.55;77.87;101670.78;5053591;28;20512;-69
2021/06/09 05:12:06;;;;;;;1.77;1.00;;;;;;;16.63;79.21;101673.56;5053652;28;20482;-69
2021/06/09 05:14:46;;;;;;;1.47;0.90;;;;;;;16.71;77.83;101669.25;5053518;28;20419;-68
2021/06/09 05:17:17;;;;;;;1.93;1.20;;;;;;;16.81;76.54;101679.13;5053157;28;20468;-65
2021/06/09 05:19:46;;;;;;;0.80;0.80;;;;;;;16.88;75.59;101672.09;5053034;28;20446;-66
2021/06/09 05:22:19;;;;;;;1.20;0.93;;;;;;;17.03;75.08;101670.84;5053423;28;20442;-66
2021/06/09 05:24:46;;;;;;;3.00;1.63;;;;;;;17.14;74.74;101671.38;5053355;28;20426;-68
2021/06/09 05:27:15;;;;;;;1.00;0.83;;;;;;;17.27;75.43;101669.63;5053401;28;20454;-70
2021/06/09 05:29:43;;;;;;;1.90;1.10;;;;;;;17.37;73.80;101670.13;5053259;28;20531;-64
2021/06/09 05:32:09;;;;;;;2.40;0.90;;;;;;;17.49;73.27;101669.50;5052651;28;21026;-64
2021/06/09 05:34:39;;;;;;;0.87;0.60;;;;;;;17.55;71.68;101661.91;5053190;28;20446;-64
2021/06/09 05:37:06;;;;;;;3.17;1.63;;;;;;;17.70;70.13;101661.41;5053603;28;20968;-65
2021/06/09 05:39:37;;;;;;;0.80;0.60;;;;;;;17.89;70.86;101663.88;5059605;28;20466;-65
2021/06/09 05:42:06;;;;;;;1.60;1.10;;;;;;;18.01;72.60;101664.00;5053161;28;20422;-65
2021/06/09 05:44:32;;;;;;;2.43;1.27;;;;;;;18.11;73.97;101668.38;5053091;28;20445;-65
2021/06/09 05:46:59;;;;;;;1.83;1.03;;;;;;;18.18;73.88;101667.84;5053116;28;20437;-65
2021/06/09 05:49:25;;;;;;;1.10;0.70;;;;;;;18.28;73.41;101679.31;5052986;28;20464;-65
2021/06/09 05:51:54;;;;;;;3.03;0.80;;;;;;;18.35;72.63;101676.03;5052925;28;20477;-65
2021/06/09 05:54:20;;;;;;;1.43;0.90;;;;;;;18.45;71.74;101680.38;5052784;28;20438;-66
2021/06/09 05:56:47;;;;;;;1.10;0.80;;;;;;;18.51;70.44;101673.59;5052810;28;20437;-65
2021/06/09 05:59:14;;;;;;;1.00;0.90;;;;;;;18.55;69.48;101675.34;5052954;28;20470;-65
2021/06/09 06:01:41;;;;;;;1.97;0.70;;;;;;;18.65;68.05;101672.22;5053011;28;20794;-67
2021/06/09 06:04:07;;;;;;;2.77;0.73;;;;;;;18.75;67.72;101678.53;5052648;28;21020;-67
2021/06/09 06:06:34;;;;;;;0.67;0.67;;;;;;;18.81;67.29;101672.50;5052996;28;20434;-67
2021/06/09 06:09:03;;;;;;;1.10;0.70;;;;;;;18.86;66.99;101675.09;5052862;28;20462;-67
2021/06/09 06:11:29;;;;;;;1.70;0.70;;;;;;;18.92;66.54;101678.44;5052598;28;20935;-70
2021/06/09 06:13:56;;;;;;;1.33;0.93;;;;;;;19.01;65.21;101681.94;5052938;28;20450;-67
2021/06/09 06:16:22;;;;;;;0.90;0.70;;;;;;;19.10;64.09;101677.22;5052890;28;20500;-67
2021/06/09 06:18:49;;;;;;;0.60;0.50;;;;;;;19.19;62.82;101679.91;5052473;28;20469;-67
2021/06/09 06:21:17;;;;;;;1.27;0.83;;;;;;;19.32;63.60;101678.84;5052880;28;20541;-67
2021/06/09 06:23:44;;;;;;;0.90;0.70;;;;;;;19.40;64.69;101680.75;5052904;28;20453;-67
2021/06/09 06:26:14;;;;;;;1.30;0.80;;;;;;;19.49;64.34;101677.94;5052676;28;20446;-67
2021/06/09 06:28:41;;;;;;;4.10;0.90;;;;;;;19.60;63.08;101679.16;5052959;28;20469;-67
2021/06/09 06:31:11;;;;;;;1.00;0.70;;;;;;;19.70;63.65;101677.97;5056594;28;20547;-66
2021/06/09 06:33:38;;;;;;;3.57;1.20;;;;;;;19.78;62.51;101674.31;5055028;28;20474;-67
2021/06/09 06:36:05;;;;;;;1.20;0.93;;;;;;;19.83;63.31;101681.56;5056513;28;20863;-66
2021/06/09 06:38:36;;;;;;;0.80;0.70;;;;;;;19.91;63.22;101689.72;5056400;28;20458;-66
2021/06/09 06:41:02;;;;;;;0.90;0.80;;;;;;;19.98;63.75;101680.16;5056831;28;20481;-65
2021/06/09 06:43:30;;;;;;;1.27;0.93;;;;;;;20.06;63.09;101684.78;5056343;28;20442;-67
2021/06/09 06:45:56;;;;;;;1.43;0.70;;;;;;;20.15;62.07;101686.28;5056344;28;20457;-66
2021/06/09 06:48:22;;;;;;;0.80;0.80;;;;;;;20.24;62.55;101685.41;5056180;28;20520;-66
2021/06/09 06:50:49;;;;;;;1.00;0.80;;;;;;;20.31;61.43;101680.94;5056259;28;20442;-66
2021/06/09 06:53:16;;;;;;;1.17;0.97;;;;;;;20.33;60.58;101684.16;5056111;28;20493;-67
2021/06/09 06:55:42;;;;;;;1.40;0.90;;;;;;;20.38;60.03;101683.94;5056129;28;20438;-68
2021/06/09 06:58:09;;;;;;;2.70;0.70;;;;;;;20.50;60.44;101688.69;5056020;28;20465;-68
2021/06/09 07:00:38;;;;;;;1.03;0.97;;;;;;;20.56;60.30;101690.06;5055936;28;20442;-66
2021/06/09 07:03:07;;;;;;;1.13;0.83;;;;;;;20.62;59.50;101690.66;5056075;28;20442;-66
2021/06/09 07:05:34;;;;;;;1.00;0.90;;;;;;;20.69;59.43;101692.84;5055948;28;20442;-65
2021/06/09 07:08:01;;;;;;;2.67;1.10;;;;;;;20.72;59.72;101692.97;5055918;28;20473;-66
2021/06/09 07:10:29;;;;;;;3.13;1.00;;;;;;;20.80;58.36;101689.28;5055982;28;20500;-66
2021/06/09 07:12:58;;;;;;;1.33;1.00;;;;;;;20.90;59.61;101691.59;5055501;28;21010;-67
2021/06/09 07:15:27;;;;;;;3.43;1.10;;;;;;;20.99;59.20;101693.44;5056112;28;20500;-66
2021/06/09 07:17:56;;;;;;;0.80;0.80;;;;;;;21.05;57.58;101695.59;5055876;28;20482;-66
2021/06/09 07:20:24;;;;;;;1.33;1.10;;;;;;;21.03;56.81;101697.91;5056039;28;20527;-66
2021/06/09 07:22:52;;;;;;;0.90;0.70;;;;;;;21.12;56.28;101695.06;5063150;28;20462;-66
2021/06/09 07:25:18;;;;;;;1.10;0.93;;;;;;;21.19;54.01;101694.44;5064694;28;20450;-66
2021/06/09 07:27:47;;;;;;;0.70;0.70;;;;;;;21.21;53.37;101689.41;5055716;28;20489;-66
2021/06/09 07:30:17;;;;;;;0.80;0.73;;;;;;;21.24;56.50;101692.25;5055548;28;20442;-66
2021/06/09 07:32:45;;;;;;;1.90;0.80;;;;;;;21.34;56.48;101691.03;5055589;28;20995;-67
2021/06/09 07:35:13;;;;;;;0.80;0.60;;;;;;;21.44;53.20;101693.31;5055440;28;20533;-67
2021/06/09 07:37:43;;;;;;;1.03;0.87;;;;;;;21.48;53.95;101696.19;5055347;28;20907;-66
2021/06/09 07:40:12;;;;;;;0.70;0.70;;;;;;;21.58;54.37;101699.25;5055236;28;20537;-67
2021/06/09 07:42:40;;;;;;;0.60;0.60;;;;;;;21.56;54.02;101689.69;5055310;28;20446;-67
2021/06/09 07:45:09;;;;;;;2.87;0.90;;;;;;;21.61;53.29;101700.50;5055100;28;20940;-67
2021/06/09 07:47:36;;;;;;;0.80;0.80;;;;;;;21.62;50.64;101680.03;5054922;28;20525;-68
2021/06/09 07:50:06;;;;;;;1.23;0.77;;;;;;;21.65;50.36;101687.63;5055208;28;20450;-67
2021/06/09 07:52:35;;;;;;;2.50;0.70;;;;;;;21.64;50.42;101691.50;5055295;28;20532;-67
2021/06/09 07:55:03;;;;;;;0.80;0.73;;;;;;;21.70;51.00;101681.88;5054996;28;20515;-66
2021/06/09 07:57:33;;;;;;;1.00;0.70;;;;;;;21.79;51.76;101685.28;5054607;28;20984;-66
2021/06/09 07:59:59;;;;;;;1.20;0.80;;;;;;;21.87;52.15;101686.28;5054595;28;20888;-67
2021/06/09 08:02:25;;;;;;;7.77;1.00;;;;;;;21.90;52.51;101680.06;5055077;28;20446;-69
2021/06/09 08:04:53;;;;;;;1.00;0.80;;;;;;;21.99;52.41;101688.19;5054722;28;20446;-67
2021/06/09 08:07:19;;;;;;;0.90;0.70;;;;;;;22.09;53.13;101688.50;5054245;28;20818;-67
2021/06/09 08:09:46;;;;;;;1.07;0.70;;;;;;;22.09;54.23;101688.50;5054624;28;20441;-67
2021/06/09 08:12:13;;;;;;;1.03;0.90;;;;;;;22.11;53.72;101688.94;5054383;28;21007;-67
2021/06/09 08:14:39;;;;;;;1.10;0.83;;;;;;;22.17;52.20;101695.00;5054552;28;20450;-66
2021/06/09 08:17:08;;;;;;;1.43;0.77;;;;;;;22.28;50.96;101695.31;5054552;28;20474;-67
2021/06/09 08:19:33;;;;;;;3.80;1.20;;;;;;;22.32;49.91;101683.22;5054002;28;20496;-66
2021/06/09 08:21:59;;;;;;;1.63;0.80;;;;;;;22.36;50.25;101686.88;5054472;28;20975;-66
2021/06/09 08:24:25;;;;;;;6.63;1.07;;;;;;;22.39;51.01;101690.88;5054535;28;20548;-66
2021/06/09 08:27:00;;;;;;;0.90;0.80;;;;;;;22.40;50.94;101693.28;5054428;28;20442;-65
2021/06/09 08:29:26;;;;;;;1.00;0.73;;;;;;;22.40;51.77;101693.28;5054338;28;20465;-65
2021/06/09 08:31:52;;;;;;;0.50;0.50;;;;;;;22.49;50.58;101684.00;5054203;28;20514;-66
2021/06/09 08:34:18;;;;;;;1.00;0.90;;;;;;;22.52;51.06;101689.63;5069953;22;20494;-73
2021/06/09 08:36:44;;;;;;;2.03;1.00;;;;;;;22.61;50.88;101698.53;5053755;28;20537;-72
2021/06/09 08:39:12;;;;;;;0.90;0.80;;;;;;;22.70;51.08;101690.09;5053572;28;20508;-72
2021/06/09 08:41:40;;;;;;;1.50;0.90;;;;;;;22.71;48.21;101688.94;5054099;28;20453;-72
2021/06/09 08:44:07;;;;;;;0.77;0.77;;;;;;;22.79;48.75;101682.41;5059876;28;20514;-71
2021/06/09 08:46:35;;;;;;;0.80;0.60;;;;;;;22.88;48.60;101680.25;5073678;28;20961;-71
2021/06/09 08:49:03;;;;;;;0.80;0.80;;;;;;;22.97;46.27;101682.06;5073652;28;20862;-71
2021/06/09 08:51:31;;;;;;;0.80;0.80;;;;;;;22.97;46.32;101688.41;5073311;28;20441;-71
2021/06/09 08:53:58;;;;;;;0.90;0.73;;;;;;;22.97;46.29;101688.41;5073429;28;20845;-72
2021/06/09 08:56:25;;;;;;;1.53;0.93;;;;;;;23.11;45.93;101687.97;5074067;28;20441;-72
2021/06/09 08:58:52;;;;;;;0.80;0.63;;;;;;;23.19;46.04;101683.38;5073752;28;20438;-72
2021/06/09 09:01:20;;;;;;;1.27;0.83;;;;;;;23.24;46.34;101696.91;5073711;28;20453;-72
2021/06/09 09:03:48;;;;;;;1.00;0.60;;;;;;;23.29;46.25;101689.16;5073574;28;20465;-72
2021/06/09 09:06:15;;;;;;;1.10;0.70;;;;;;;23.31;47.42;101675.75;5073624;28;20430;-72
2021/06/09 09:08:41;;;;;;;1.43;0.77;;;;;;;23.37;48.13;101685.41;5073654;28;20437;-73
2021/06/09 09:11:07;;;;;;;2.30;1.20;;;;;;;23.47;45.96;101683.22;5073562;28;20437;-72
2021/06/09 09:13:34;;;;;;;0.73;0.70;;;;;;;23.44;45.97;101683.94;5073033;28;21068;-72
2021/06/09 09:16:00;;;;;;;1.80;0.90;;;;;;;23.48;46.83;101680.09;5073403;28;20445;-71
2021/06/09 09:18:39;;;;;;;3.00;1.03;;;;;;;23.52;46.78;101680.97;5073460;28;20445;-72
2021/06/09 09:21:06;;;;;;;1.73;1.00;;;;;;;23.53;46.18;101676.22;5073171;28;20783;-72
2021/06/09 09:23:34;;;;;;;3.00;0.90;;;;;;;23.58;46.72;101679.50;5073277;28;20441;-71
2021/06/09 09:26:20;;;;;;;0.60;0.60;;;;;;;23.63;45.95;101684.75;5073368;28;20441;-72
2021/06/09 09:28:47;;;;;;;2.40;0.80;;;;;;;23.73;46.45;101679.81;5073342;28;20426;-72
2021/06/09 09:31:15;;;;;;;0.80;0.80;;;;;;;23.72;45.94;101692.84;5073305;28;20812;-72
2021/06/09 09:33:43;;;;;;;1.00;0.90;;;;;;;23.72;45.31;101690.09;5072999;28;20481;-72
2021/06/09 09:36:26;;;;;;;0.70;0.67;;;;;;;23.70;47.20;101692.44;5073346;28;20437;-72
2021/06/09 09:38:52;;;;;;;0.83;0.67;;;;;;;23.74;45.76;101695.28;5080008;28;20522;-73
2021/06/09 09:41:19;;;;;;;1.37;0.90;;;;;;;23.79;46.20;101687.47;5073166;28;20437;-73
2021/06/09 09:43:49;;;;;;;0.70;0.67;;;;;;;23.91;45.51;101681.81;5073131;28;20465;-72
2021/06/09 09:46:19;;;;;;;0.70;0.70;;;;;;;23.97;47.26;101685.06;5073191;28;20441;-73
2021/06/09 09:49:07;;;;;;;0.70;0.60;;;;;;;24.04;45.46;101684.38;5070999;28;20464;-71
2021/06/09 09:51:36;;;;;;;0.90;0.80;;;;;;;24.07;45.63;101672.59;5053020;28;20450;-72
2021/06/09 09:54:06;;;;;;;0.87;0.60;;;;;;;24.09;45.23;101686.88;5052922;28;20877;-72
2021/06/09 09:56:33;;;;;;;0.77;0.73;;;;;;;24.13;45.95;101680.25;5053038;28;20442;-72
2021/06/09 09:59:03;;;;;;;1.10;1.00;;;;;;;24.26;46.00;101674.50;5053002;28;20445;-72
2021/06/09 10:01:30;;;;;;;1.00;0.80;;;;;;;24.38;45.44;101677.16;5052685;28;20470;-72
2021/06/09 10:03:57;;;;;;;0.90;0.77;;;;;;;24.45;44.38;101676.47;5055048;28;20454;-72
2021/06/09 10:06:34;;;;;;;0.80;0.60;;;;;;;24.55;44.74;101673.09;5057040;28;20453;-72
2021/06/09 10:09:09;;;;;;;1.10;0.70;;;;;;;24.55;42.89;101681.41;5057020;28;20517;-72
2021/06/09 10:11:40;;;;;;;2.93;0.57;;;;;;;24.64;43.00;101673.63;5056658;28;20973;-72
2021/06/09 10:14:15;;;;;;;1.10;0.70;;;;;;;24.69;41.95;101667.78;5056812;28;20497;-72
2021/06/09 10:16:42;;;;;;;1.27;0.70;;;;;;;24.67;45.67;101672.91;5056853;28;20453;-72
2021/06/09 10:19:10;;;;;;;1.93;0.93;;;;;;;24.79;42.85;101675.47;5056515;28;20931;-72
2021/06/09 10:21:47;;;;;;;1.00;0.63;;;;;;;24.78;42.06;101668.31;5056517;28;20969;-72
2021/06/09 10:24:14;;;;;;;0.87;0.53;;;;;;;24.91;42.48;101668.91;5056711;28;20466;-72
2021/06/09 10:26:45;;;;;;;0.70;0.60;;;;;;;25.02;43.19;101664.34;5056296;28;20438;-72
2021/06/09 10:29:14;;;;;;;0.80;0.60;;;;;;;25.19;41.41;101673.31;5060177;28;20454;-74
2021/06/09 10:31:44;;;;;;;0.80;0.40;;;;;;;25.24;40.62;101668.25;5076831;28;20449;-73
2021/06/09 10:34:10;;;;;;;0.80;0.60;;;;;;;25.21;40.11;101669.00;5076021;28;21001;-73
2021/06/09 10:36:41;;;;;;;0.53;0.47;;;;;;;25.29;40.56;101667.13;5076465;28;20440;-72
2021/06/09 10:39:09;;;;;;;1.03;0.80;;;;;;;25.23;39.66;101663.84;5069118;28;20951;-72
2021/06/09 10:41:38;;;;;;;0.80;0.80;;;;;;;25.23;39.47;101657.50;5055889;28;20499;-73
2021/06/09 10:44:05;;;;;;;0.60;0.50;;;;;;;25.30;39.69;101666.75;5055637;28;20481;-72
2021/06/09 10:46:34;;;;;;;0.50;0.40;;;;;;;25.38;41.06;101659.31;5055664;28;20442;-73
2021/06/09 10:49:02;;;;;;;1.00;0.50;;;;;;;25.53;41.87;101651.97;5055587;28;20442;-72
2021/06/09 10:51:29;;;;;;;0.60;0.60;;;;;;;25.65;42.11;101652.53;5067047;28;20457;-73
2021/06/09 10:53:59;;;;;;;1.37;0.90;;;;;;;25.84;41.03;101653.56;5075532;28;20485;-73
2021/06/09 10:56:26;;;;;;;0.80;0.80;;;;;;;25.88;39.60;101635.75;5075033;28;20957;-73
2021/06/09 10:58:53;;;;;;;0.80;0.70;;;;;;;25.88;43.08;101641.31;5073772;28;20449;-74
2021/06/09 11:01:23;;;;;;;0.80;0.80;;;;;;;26.16;42.14;101645.56;5055327;28;20446;-74
2021/06/09 11:03:50;;;;;;;0.80;0.50;;;;;;;26.31;40.23;101638.97;5055555;28;20450;-76
2021/06/09 11:06:16;;;;;;;1.00;0.60;;;;;;;26.45;39.55;101634.75;5055311;28;20446;-71
2021/06/09 11:08:42;;;;;;;0.90;0.60;;;;;;;26.52;38.98;101629.22;5055228;28;20426;-74
2021/06/09 11:11:21;;;;;;;0.50;0.50;;;;;;;26.39;40.12;101623.97;5055339;28;20449;-74
2021/06/09 11:13:48;;;;;;;0.60;0.60;;;;;;;26.32;38.11;101637.78;5054984;28;20490;-71
2021/06/09 11:16:17;;;;;;;0.97;0.70;;;;;;;26.32;37.80;101632.22;5054185;28;20465;-72
2021/06/09 11:18:45;;;;;;;1.20;0.50;;;;;;;26.11;37.41;101627.25;5055056;28;20467;-72
2021/06/09 11:21:13;;;;;;;0.73;0.60;;;;;;;26.49;37.70;101630.81;5054962;28;20449;-71
2021/06/09 11:23:40;;;;;;;0.50;0.40;;;;;;;27.48;35.74;101624.28;5054469;28;20496;-72
2021/06/09 11:26:23;;;;;;;1.00;0.60;;;;;;;28.43;33.87;101626.91;5054917;28;20442;-73
2021/06/09 11:28:50;;;;;;;0.70;0.60;;;;;;;29.57;33.09;101635.84;5054536;28;20856;-74